sensor_id;sensor_type;location;lat;lon;timestamp;temperature;humidity
7002;DHT22;3541;53.230;10.518;2024-01-25T00:00:25;7.40;99.90
7002;DHT22;3541;53.230;10.518;2024-01-25T00:02:52;7.30;99.90
7002;DHT22;3541;53.230;10.518;2024-01-25T00:05:20;7.30;99.90
7002;DHT22;3541;53.230;10.518;2024-01-25T00:07:47;7.30;99.90
7002;DHT22;3541;53.230;10.518;2024-01-25T00:10:15;7.30;99.90
7002;DHT22;3541;53.230;10.518;2024-01-25T00:12:42;7.30;99.90
7002;DHT22;3541;53.230;10.518;2024-01-25T00:15:09;7.30;99.90
7002;DHT22;3541;53.230;10.518;2024-01-25T00:17:36;7.30;99.90
7002;DHT22;3541;53.230;10.518;2024-01-25T00:20:03;7.20;99.90
7002;DHT22;3541;53.230;10.518;2024-01-25T00:22:31;7.20;99.90
7002;DHT22;3541;53.230;10.518;2024-01-25T00:24:58;7.20;99.90
7002;DHT22;3541;53.230;10.518;2024-01-25T00:27:25;7.20;99.90
7002;DHT22;3541;53.230;10.518;2024-01-25T00:29:51;7.20;99.90
7002;DHT22;3541;53.230;10.518;2024-01-25T00:32:18;7.20;99.90
7002;DHT22;3541;53.230;10.518;2024-01-25T00:34:45;7.20;99.90
7002;DHT22;3541;53.230;10.518;2024-01-25T00:37:12;7.20;99.90
7002;DHT22;3541;53.230;10.518;2024-01-25T00:39:40;7.20;99.90
7002;DHT22;3541;53.230;10.518;2024-01-25T00:42:07;7.20;99.90
7002;DHT22;3541;53.230;10.518;2024-01-25T00:44:38;7.20;99.90
7002;DHT22;3541;53.230;10.518;2024-01-25T00:47:05;7.10;99.90
7002;DHT22;3541;53.230;10.518;2024-01-25T00:49:32;7.10;99.90
7002;DHT22;3541;53.230;10.518;2024-01-25T00:52:00;7.10;99.90
7002;DHT22;3541;53.230;10.518;2024-01-25T00:54:29;7.10;99.90
7002;DHT22;3541;53.230;10.518;2024-01-25T00:56:57;7.10;99.90
7002;DHT22;3541;53.230;10.518;2024-01-25T00:59:24;7.10;99.90
7002;DHT22;3541;53.230;10.518;2024-01-25T01:01:52;7.10;99.90
7002;DHT22;3541;53.230;10.518;2024-01-25T01:04:20;7.00;99.90
7002;DHT22;3541;53.230;10.518;2024-01-25T01:06:47;7.00;99.90
7002;DHT22;3541;53.230;10.518;2024-01-25T01:09:13;7.00;99.90
7002;DHT22;3541;53.230;10.518;2024-01-25T01:11:40;7.00;99.90
7002;DHT22;3541;53.230;10.518;2024-01-25T01:14:08;7.00;99.90
7002;DHT22;3541;53.230;10.518;2024-01-25T01:16:35;7.00;99.90
7002;DHT22;3541;53.230;10.518;2024-01-25T01:19:01;7.00;99.90
7002;DHT22;3541;53.230;10.518;2024-01-25T01:21:32;7.00;99.90
7002;DHT22;3541;53.230;10.518;2024-01-25T01:23:59;7.00;99.90
7002;DHT22;3541;53.230;10.518;2024-01-25T01:26:25;7.00;99.90
7002;DHT22;3541;53.230;10.518;2024-01-25T01:28:52;7.00;99.90
7002;DHT22;3541;53.230;10.518;2024-01-25T01:31:20;7.00;99.90
7002;DHT22;3541;53.230;10.518;2024-01-25T01:33:46;7.10;99.90
7002;DHT22;3541;53.230;10.518;2024-01-25T01:36:13;7.00;99.90
7002;DHT22;3541;53.230;10.518;2024-01-25T01:38:40;7.00;99.90
7002;DHT22;3541;53.230;10.518;2024-01-25T01:41:07;7.00;99.90
7002;DHT22;3541;53.230;10.518;2024-01-25T01:43:35;7.00;99.90
7002;DHT22;3541;53.230;10.518;2024-01-25T01:46:06;7.10;99.90
7002;DHT22;3541;53.230;10.518;2024-01-25T01:48:37;7.10;99.90
7002;DHT22;3541;53.230;10.518;2024-01-25T01:51:05;7.10;99.90
7002;DHT22;3541;53.230;10.518;2024-01-25T01:53:32;7.20;99.90
7002;DHT22;3541;53.230;10.518;2024-01-25T01:55:59;7.10;99.90
7002;DHT22;3541;53.230;10.518;2024-01-25T01:58:27;7.20;99.90
7002;DHT22;3541;53.230;10.518;2024-01-25T02:00:55;7.20;99.90
7002;DHT22;3541;53.230;10.518;2024-01-25T02:03:22;7.20;99.90
7002;DHT22;3541;53.230;10.518;2024-01-25T02:05:50;7.20;99.90
7002;DHT22;3541;53.230;10.518;2024-01-25T02:08:16;7.20;99.90
7002;DHT22;3541;53.230;10.518;2024-01-25T02:10:43;7.20;99.90
7002;DHT22;3541;53.230;10.518;2024-01-25T02:13:10;7.20;99.90
7002;DHT22;3541;53.230;10.518;2024-01-25T02:15:36;7.20;99.90
7002;DHT22;3541;53.230;10.518;2024-01-25T02:18:03;7.20;99.90
7002;DHT22;3541;53.230;10.518;2024-01-25T02:20:30;7.20;99.90
7002;DHT22;3541;53.230;10.518;2024-01-25T02:22:58;7.20;99.90
7002;DHT22;3541;53.230;10.518;2024-01-25T02:25:25;7.20;99.90
7002;DHT22;3541;53.230;10.518;2024-01-25T02:27:52;7.20;99.90
7002;DHT22;3541;53.230;10.518;2024-01-25T02:30:19;7.30;99.90
7002;DHT22;3541;53.230;10.518;2024-01-25T02:32:45;7.30;99.90
7002;DHT22;3541;53.230;10.518;2024-01-25T02:35:12;7.30;99.90
7002;DHT22;3541;53.230;10.518;2024-01-25T02:37:39;7.30;99.90
7002;DHT22;3541;53.230;10.518;2024-01-25T02:40:08;7.30;99.90
7002;DHT22;3541;53.230;10.518;2024-01-25T02:42:34;7.30;99.90
7002;DHT22;3541;53.230;10.518;2024-01-25T02:45:01;7.30;99.90
7002;DHT22;3541;53.230;10.518;2024-01-25T02:47:28;7.30;99.90
7002;DHT22;3541;53.230;10.518;2024-01-25T02:49:54;7.30;99.90
7002;DHT22;3541;53.230;10.518;2024-01-25T02:52:21;7.20;99.90
7002;DHT22;3541;53.230;10.518;2024-01-25T02:54:47;7.30;99.90
7002;DHT22;3541;53.230;10.518;2024-01-25T02:57:17;7.20;99.90
7002;DHT22;3541;53.230;10.518;2024-01-25T02:59:43;7.30;99.90
7002;DHT22;3541;53.230;10.518;2024-01-25T03:02:10;7.30;99.90
7002;DHT22;3541;53.230;10.518;2024-01-25T03:04:36;7.30;99.90
7002;DHT22;3541;53.230;10.518;2024-01-25T03:07:03;7.30;99.90
7002;DHT22;3541;53.230;10.518;2024-01-25T03:09:30;7.30;99.90
7002;DHT22;3541;53.230;10.518;2024-01-25T03:11:56;7.20;99.90
7002;DHT22;3541;53.230;10.518;2024-01-25T03:14:24;7.20;99.90
7002;DHT22;3541;53.230;10.518;2024-01-25T03:16:51;7.20;99.90
7002;DHT22;3541;53.230;10.518;2024-01-25T03:19:18;7.20;99.90
7002;DHT22;3541;53.230;10.518;2024-01-25T03:21:44;7.20;99.90
7002;DHT22;3541;53.230;10.518;2024-01-25T03:24:11;7.20;99.90
7002;DHT22;3541;53.230;10.518;2024-01-25T03:26:39;7.20;99.90
7002;DHT22;3541;53.230;10.518;2024-01-25T03:29:05;7.30;99.90
7002;DHT22;3541;53.230;10.518;2024-01-25T03:31:33;7.30;99.90
7002;DHT22;3541;53.230;10.518;2024-01-25T03:34:01;7.30;99.90
7002;DHT22;3541;53.230;10.518;2024-01-25T03:36:28;7.30;99.90
7002;DHT22;3541;53.230;10.518;2024-01-25T03:38:54;7.30;99.90
7002;DHT22;3541;53.230;10.518;2024-01-25T03:41:21;7.30;99.90
7002;DHT22;3541;53.230;10.518;2024-01-25T03:43:48;7.30;99.90
7002;DHT22;3541;53.230;10.518;2024-01-25T03:46:15;7.30;99.90
7002;DHT22;3541;53.230;10.518;2024-01-25T03:48:43;7.30;99.90
7002;DHT22;3541;53.230;10.518;2024-01-25T03:51:10;7.30;99.90
7002;DHT22;3541;53.230;10.518;2024-01-25T03:53:36;7.30;99.90
7002;DHT22;3541;53.230;10.518;2024-01-25T03:56:03;7.30;99.90
7002;DHT22;3541;53.230;10.518;2024-01-25T03:58:30;7.30;99.90
7002;DHT22;3541;53.230;10.518;2024-01-25T04:00:57;7.30;99.90
7002;DHT22;3541;53.230;10.518;2024-01-25T04:03:23;7.30;99.90
7002;DHT22;3541;53.230;10.518;2024-01-25T04:05:51;7.30;99.90
7002;DHT22;3541;53.230;10.518;2024-01-25T04:08:18;7.30;99.90
7002;DHT22;3541;53.230;10.518;2024-01-25T04:10:44;7.30;99.90
7002;DHT22;3541;53.230;10.518;2024-01-25T04:13:11;7.20;99.90
7002;DHT22;3541;53.230;10.518;2024-01-25T04:15:37;7.20;99.90
7002;DHT22;3541;53.230;10.518;2024-01-25T04:18:04;7.30;99.90
7002;DHT22;3541;53.230;10.518;2024-01-25T04:20:31;7.30;99.90
7002;DHT22;3541;53.230;10.518;2024-01-25T04:23:00;7.30;99.90
7002;DHT22;3541;53.230;10.518;2024-01-25T04:25:27;7.30;99.90
7002;DHT22;3541;53.230;10.518;2024-01-25T04:27:54;7.20;99.90
7002;DHT22;3541;53.230;10.518;2024-01-25T04:30:20;7.30;99.90
7002;DHT22;3541;53.230;10.518;2024-01-25T04:32:47;7.30;99.90
7002;DHT22;3541;53.230;10.518;2024-01-25T04:35:13;7.20;99.90
7002;DHT22;3541;53.230;10.518;2024-01-25T04:37:40;7.20;99.90
7002;DHT22;3541;53.230;10.518;2024-01-25T04:40:09;7.20;99.90
7002;DHT22;3541;53.230;10.518;2024-01-25T04:42:36;7.30;99.90
7002;DHT22;3541;53.230;10.518;2024-01-25T04:45:04;7.20;99.90
7002;DHT22;3541;53.230;10.518;2024-01-25T04:47:30;7.20;99.90
7002;DHT22;3541;53.230;10.518;2024-01-25T04:49:57;7.20;99.90
7002;DHT22;3541;53.230;10.518;2024-01-25T04:52:24;7.20;99.90
7002;DHT22;3541;53.230;10.518;2024-01-25T04:54:51;7.20;99.90
7002;DHT22;3541;53.230;10.518;2024-01-25T04:57:19;7.20;99.90
7002;DHT22;3541;53.230;10.518;2024-01-25T04:59:45;7.20;99.90
7002;DHT22;3541;53.230;10.518;2024-01-25T05:02:12;7.20;99.90
7002;DHT22;3541;53.230;10.518;2024-01-25T05:04:38;7.20;99.90
7002;DHT22;3541;53.230;10.518;2024-01-25T05:07:05;7.20;99.90
7002;DHT22;3541;53.230;10.518;2024-01-25T05:09:31;7.20;99.90
7002;DHT22;3541;53.230;10.518;2024-01-25T05:11:58;7.20;99.90
7002;DHT22;3541;53.230;10.518;2024-01-25T05:14:28;7.20;99.90
7002;DHT22;3541;53.230;10.518;2024-01-25T05:16:55;7.20;99.90
7002;DHT22;3541;53.230;10.518;2024-01-25T05:19:21;7.20;99.90
7002;DHT22;3541;53.230;10.518;2024-01-25T05:21:48;7.20;99.90
7002;DHT22;3541;53.230;10.518;2024-01-25T05:24:14;7.20;99.90
7002;DHT22;3541;53.230;10.518;2024-01-25T05:26:41;7.20;99.90
7002;DHT22;3541;53.230;10.518;2024-01-25T05:29:08;7.20;99.90
7002;DHT22;3541;53.230;10.518;2024-01-25T05:31:36;7.20;99.90
7002;DHT22;3541;53.230;10.518;2024-01-25T05:34:03;7.20;99.90
7002;DHT22;3541;53.230;10.518;2024-01-25T05:36:29;7.20;99.90
7002;DHT22;3541;53.230;10.518;2024-01-25T05:38:56;7.20;99.90
7002;DHT22;3541;53.230;10.518;2024-01-25T05:41:22;7.20;99.90
7002;DHT22;3541;53.230;10.518;2024-01-25T05:43:49;7.20;99.90
7002;DHT22;3541;53.230;10.518;2024-01-25T05:46:15;7.20;99.90
7002;DHT22;3541;53.230;10.518;2024-01-25T05:48:43;7.20;99.90
7002;DHT22;3541;53.230;10.518;2024-01-25T05:51:10;7.20;99.90
7002;DHT22;3541;53.230;10.518;2024-01-25T05:53:36;7.20;99.90
7002;DHT22;3541;53.230;10.518;2024-01-25T05:56:03;7.20;99.90
7002;DHT22;3541;53.230;10.518;2024-01-25T05:58:30;7.20;99.90
7002;DHT22;3541;53.230;10.518;2024-01-25T06:00:57;7.20;99.90
7002;DHT22;3541;53.230;10.518;2024-01-25T06:03:23;7.20;99.90
7002;DHT22;3541;53.230;10.518;2024-01-25T06:05:51;7.20;99.90
7002;DHT22;3541;53.230;10.518;2024-01-25T06:08:18;7.20;99.90
7002;DHT22;3541;53.230;10.518;2024-01-25T06:10:44;7.10;99.90
7002;DHT22;3541;53.230;10.518;2024-01-25T06:13:11;7.10;99.90
7002;DHT22;3541;53.230;10.518;2024-01-25T06:15:37;7.10;99.90
7002;DHT22;3541;53.230;10.518;2024-01-25T06:18:04;7.10;99.90
7002;DHT22;3541;53.230;10.518;2024-01-25T06:20:31;7.10;99.90
7002;DHT22;3541;53.230;10.518;2024-01-25T06:22:59;7.10;99.90
7002;DHT22;3541;53.230;10.518;2024-01-25T06:25:26;7.10;99.90
7002;DHT22;3541;53.230;10.518;2024-01-25T06:27:56;7.10;99.90
7002;DHT22;3541;53.230;10.518;2024-01-25T06:30:23;7.10;99.90
7002;DHT22;3541;53.230;10.518;2024-01-25T06:32:50;7.10;99.90
7002;DHT22;3541;53.230;10.518;2024-01-25T06:35:17;7.10;99.90
7002;DHT22;3541;53.230;10.518;2024-01-25T06:37:43;7.10;99.90
7002;DHT22;3541;53.230;10.518;2024-01-25T06:40:11;7.00;99.90
7002;DHT22;3541;53.230;10.518;2024-01-25T06:42:38;7.00;99.90
7002;DHT22;3541;53.230;10.518;2024-01-25T06:45:05;7.10;99.90
7002;DHT22;3541;53.230;10.518;2024-01-25T06:47:31;7.00;99.90
7002;DHT22;3541;53.230;10.518;2024-01-25T06:49:58;7.00;99.90
7002;DHT22;3541;53.230;10.518;2024-01-25T06:52:24;7.00;99.90
7002;DHT22;3541;53.230;10.518;2024-01-25T06:54:51;7.10;99.90
7002;DHT22;3541;53.230;10.518;2024-01-25T06:57:19;7.00;99.90
7002;DHT22;3541;53.230;10.518;2024-01-25T06:59:46;7.00;99.90
7002;DHT22;3541;53.230;10.518;2024-01-25T07:02:13;7.00;99.90
7002;DHT22;3541;53.230;10.518;2024-01-25T07:04:39;7.00;99.90
7002;DHT22;3541;53.230;10.518;2024-01-25T07:07:06;7.00;99.90
7002;DHT22;3541;53.230;10.518;2024-01-25T07:09:33;7.00;99.90
7002;DHT22;3541;53.230;10.518;2024-01-25T07:11:59;7.00;99.90
7002;DHT22;3541;53.230;10.518;2024-01-25T07:14:27;7.00;99.90
7002;DHT22;3541;53.230;10.518;2024-01-25T07:16:54;7.00;99.90
7002;DHT22;3541;53.230;10.518;2024-01-25T07:19:20;7.00;99.90
7002;DHT22;3541;53.230;10.518;2024-01-25T07:21:47;6.90;99.90
7002;DHT22;3541;53.230;10.518;2024-01-25T07:24:13;7.00;99.90
7002;DHT22;3541;53.230;10.518;2024-01-25T07:26:40;7.00;99.90
7002;DHT22;3541;53.230;10.518;2024-01-25T07:29:07;7.00;99.90
7002;DHT22;3541;53.230;10.518;2024-01-25T07:31:34;7.00;99.90
7002;DHT22;3541;53.230;10.518;2024-01-25T07:34:01;7.00;99.90
7002;DHT22;3541;53.230;10.518;2024-01-25T07:36:28;7.00;99.90
7002;DHT22;3541;53.230;10.518;2024-01-25T07:38:55;7.00;99.90
7002;DHT22;3541;53.230;10.518;2024-01-25T07:41:22;7.00;99.90
7002;DHT22;3541;53.230;10.518;2024-01-25T07:43:48;7.00;99.90
7002;DHT22;3541;53.230;10.518;2024-01-25T07:46:15;7.00;99.90
7002;DHT22;3541;53.230;10.518;2024-01-25T07:48:43;7.00;99.90
7002;DHT22;3541;53.230;10.518;2024-01-25T07:51:13;7.00;99.90
7002;DHT22;3541;53.230;10.518;2024-01-25T07:53:39;7.00;99.90
7002;DHT22;3541;53.230;10.518;2024-01-25T07:56:06;7.00;99.90
7002;DHT22;3541;53.230;10.518;2024-01-25T07:58:34;7.00;99.90
7002;DHT22;3541;53.230;10.518;2024-01-25T08:01:03;7.00;99.90
7002;DHT22;3541;53.230;10.518;2024-01-25T08:03:30;7.00;99.90
7002;DHT22;3541;53.230;10.518;2024-01-25T08:05:58;7.00;99.90
7002;DHT22;3541;53.230;10.518;2024-01-25T08:08:24;7.00;99.90
7002;DHT22;3541;53.230;10.518;2024-01-25T08:10:51;6.90;99.90
7002;DHT22;3541;53.230;10.518;2024-01-25T08:13:18;6.90;99.90
7002;DHT22;3541;53.230;10.518;2024-01-25T08:15:44;6.90;99.90
7002;DHT22;3541;53.230;10.518;2024-01-25T08:18:11;6.90;99.90
7002;DHT22;3541;53.230;10.518;2024-01-25T08:20:38;6.90;99.90
7002;DHT22;3541;53.230;10.518;2024-01-25T08:23:06;6.90;99.90
7002;DHT22;3541;53.230;10.518;2024-01-25T08:25:34;7.00;99.90
7002;DHT22;3541;53.230;10.518;2024-01-25T08:28:01;7.00;99.90
7002;DHT22;3541;53.230;10.518;2024-01-25T08:30:27;7.00;99.90
7002;DHT22;3541;53.230;10.518;2024-01-25T08:32:55;7.00;99.90
7002;DHT22;3541;53.230;10.518;2024-01-25T08:35:21;7.00;99.90
7002;DHT22;3541;53.230;10.518;2024-01-25T08:37:49;7.00;99.90
7002;DHT22;3541;53.230;10.518;2024-01-25T08:40:17;7.00;99.90
7002;DHT22;3541;53.230;10.518;2024-01-25T08:42:44;7.00;99.90
7002;DHT22;3541;53.230;10.518;2024-01-25T08:45:10;7.00;99.90
7002;DHT22;3541;53.230;10.518;2024-01-25T08:47:37;7.10;99.90
7002;DHT22;3541;53.230;10.518;2024-01-25T08:50:04;7.10;99.90
7002;DHT22;3541;53.230;10.518;2024-01-25T08:52:35;7.10;99.90
7002;DHT22;3541;53.230;10.518;2024-01-25T08:55:03;7.10;99.90
7002;DHT22;3541;53.230;10.518;2024-01-25T08:57:31;7.10;99.90
7002;DHT22;3541;53.230;10.518;2024-01-25T08:59:57;7.10;99.90
7002;DHT22;3541;53.230;10.518;2024-01-25T09:02:26;7.10;99.90
7002;DHT22;3541;53.230;10.518;2024-01-25T09:04:54;7.10;99.90
7002;DHT22;3541;53.230;10.518;2024-01-25T09:07:21;7.20;99.90
7002;DHT22;3541;53.230;10.518;2024-01-25T09:09:48;7.20;99.90
7002;DHT22;3541;53.230;10.518;2024-01-25T09:12:15;7.20;99.90
7002;DHT22;3541;53.230;10.518;2024-01-25T09:14:43;7.20;99.90
7002;DHT22;3541;53.230;10.518;2024-01-25T09:17:09;7.20;99.90
7002;DHT22;3541;53.230;10.518;2024-01-25T09:19:36;7.20;99.90
7002;DHT22;3541;53.230;10.518;2024-01-25T09:22:03;7.20;99.90
7002;DHT22;3541;53.230;10.518;2024-01-25T09:24:30;7.20;99.90
7002;DHT22;3541;53.230;10.518;2024-01-25T09:26:58;7.20;99.90
7002;DHT22;3541;53.230;10.518;2024-01-25T09:29:25;7.20;99.90
7002;DHT22;3541;53.230;10.518;2024-01-25T09:31:53;7.20;99.90
7002;DHT22;3541;53.230;10.518;2024-01-25T09:34:19;7.20;99.90
7002;DHT22;3541;53.230;10.518;2024-01-25T09:36:46;7.20;99.90
7002;DHT22;3541;53.230;10.518;2024-01-25T09:39:13;7.20;99.90
7002;DHT22;3541;53.230;10.518;2024-01-25T09:41:40;7.20;99.90
7002;DHT22;3541;53.230;10.518;2024-01-25T09:44:08;7.20;99.90
7002;DHT22;3541;53.230;10.518;2024-01-25T09:46:35;7.20;99.90
7002;DHT22;3541;53.230;10.518;2024-01-25T09:49:03;7.30;99.90
7002;DHT22;3541;53.230;10.518;2024-01-25T09:51:33;7.20;99.90
7002;DHT22;3541;53.230;10.518;2024-01-25T09:54:03;7.30;99.90
7002;DHT22;3541;53.230;10.518;2024-01-25T09:56:32;7.30;99.90
7002;DHT22;3541;53.230;10.518;2024-01-25T09:58:59;7.30;99.90
7002;DHT22;3541;53.230;10.518;2024-01-25T10:01:26;7.40;99.90
7002;DHT22;3541;53.230;10.518;2024-01-25T10:03:53;7.40;99.90
7002;DHT22;3541;53.230;10.518;2024-01-25T10:06:23;7.40;99.90
7002;DHT22;3541;53.230;10.518;2024-01-25T10:08:50;7.50;99.90
7002;DHT22;3541;53.230;10.518;2024-01-25T10:11:16;7.50;99.90
7002;DHT22;3541;53.230;10.518;2024-01-25T10:13:42;7.50;99.90
7002;DHT22;3541;53.230;10.518;2024-01-25T10:16:11;7.50;99.90
7002;DHT22;3541;53.230;10.518;2024-01-25T10:18:38;7.50;99.90
7002;DHT22;3541;53.230;10.518;2024-01-25T10:21:06;7.50;99.90
7002;DHT22;3541;53.230;10.518;2024-01-25T10:23:34;7.50;99.90
7002;DHT22;3541;53.230;10.518;2024-01-25T10:26:00;7.50;99.90
7002;DHT22;3541;53.230;10.518;2024-01-25T10:28:27;7.50;99.90
7002;DHT22;3541;53.230;10.518;2024-01-25T10:30:56;7.50;99.90
7002;DHT22;3541;53.230;10.518;2024-01-25T10:33:24;7.60;99.90
7002;DHT22;3541;53.230;10.518;2024-01-25T10:35:54;7.50;99.90
7002;DHT22;3541;53.230;10.518;2024-01-25T10:38:27;7.60;99.90
7002;DHT22;3541;53.230;10.518;2024-01-25T10:40:58;7.60;99.90
7002;DHT22;3541;53.230;10.518;2024-01-25T10:43:25;7.70;99.90
7002;DHT22;3541;53.230;10.518;2024-01-25T10:45:52;7.70;99.90
7002;DHT22;3541;53.230;10.518;2024-01-25T10:48:21;7.80;99.90
7002;DHT22;3541;53.230;10.518;2024-01-25T10:50:48;7.80;99.90
7002;DHT22;3541;53.230;10.518;2024-01-25T10:53:15;7.80;99.90
7002;DHT22;3541;53.230;10.518;2024-01-25T10:55:42;7.80;99.90
7002;DHT22;3541;53.230;10.518;2024-01-25T10:58:12;7.80;99.90
7002;DHT22;3541;53.230;10.518;2024-01-25T11:00:39;7.90;99.90
7002;DHT22;3541;53.230;10.518;2024-01-25T11:03:06;7.90;99.90
7002;DHT22;3541;53.230;10.518;2024-01-25T11:05:33;7.90;99.90
7002;DHT22;3541;53.230;10.518;2024-01-25T11:08:00;7.90;99.90
7002;DHT22;3541;53.230;10.518;2024-01-25T11:10:28;7.90;99.90
7002;DHT22;3541;53.230;10.518;2024-01-25T11:12:56;7.90;99.90
7002;DHT22;3541;53.230;10.518;2024-01-25T11:15:30;8.00;99.90
7002;DHT22;3541;53.230;10.518;2024-01-25T11:17:57;8.00;99.90
7002;DHT22;3541;53.230;10.518;2024-01-25T11:20:26;8.00;99.90
7002;DHT22;3541;53.230;10.518;2024-01-25T11:23:01;7.90;99.90
7002;DHT22;3541;53.230;10.518;2024-01-25T11:25:28;7.90;99.90
7002;DHT22;3541;53.230;10.518;2024-01-25T11:27:55;7.90;99.90
7002;DHT22;3541;53.230;10.518;2024-01-25T11:30:23;7.80;99.90
7002;DHT22;3541;53.230;10.518;2024-01-25T11:32:50;7.80;99.90
7002;DHT22;3541;53.230;10.518;2024-01-25T11:35:17;7.80;99.90
7002;DHT22;3541;53.230;10.518;2024-01-25T11:37:44;7.80;99.90
7002;DHT22;3541;53.230;10.518;2024-01-25T11:40:11;7.80;99.90
7002;DHT22;3541;53.230;10.518;2024-01-25T11:42:39;7.70;99.90
7002;DHT22;3541;53.230;10.518;2024-01-25T11:45:08;7.80;99.90
7002;DHT22;3541;53.230;10.518;2024-01-25T11:47:36;7.80;99.90
7002;DHT22;3541;53.230;10.518;2024-01-25T11:50:03;7.70;99.90
7002;DHT22;3541;53.230;10.518;2024-01-25T11:52:30;7.80;99.90
7002;DHT22;3541;53.230;10.518;2024-01-25T11:54:58;7.80;99.90
7002;DHT22;3541;53.230;10.518;2024-01-25T11:57:25;7.80;99.90
7002;DHT22;3541;53.230;10.518;2024-01-25T11:59:52;7.90;99.90
7002;DHT22;3541;53.230;10.518;2024-01-25T12:02:19;7.80;99.90
7002;DHT22;3541;53.230;10.518;2024-01-25T12:04:47;7.80;99.90
7002;DHT22;3541;53.230;10.518;2024-01-25T12:07:14;7.70;99.90
7002;DHT22;3541;53.230;10.518;2024-01-25T12:09:41;7.70;99.90
7002;DHT22;3541;53.230;10.518;2024-01-25T12:12:09;7.80;99.90
7002;DHT22;3541;53.230;10.518;2024-01-25T12:14:35;7.70;99.90
7002;DHT22;3541;53.230;10.518;2024-01-25T12:17:03;7.70;99.90
7002;DHT22;3541;53.230;10.518;2024-01-25T12:19:30;7.80;99.90
7002;DHT22;3541;53.230;10.518;2024-01-25T12:21:58;7.80;99.90
7002;DHT22;3541;53.230;10.518;2024-01-25T12:24:24;7.80;99.90
7002;DHT22;3541;53.230;10.518;2024-01-25T12:26:51;7.80;99.90
7002;DHT22;3541;53.230;10.518;2024-01-25T12:29:17;7.80;99.90
7002;DHT22;3541;53.230;10.518;2024-01-25T12:31:44;7.70;99.90
7002;DHT22;3541;53.230;10.518;2024-01-25T12:34:13;7.70;99.90
7002;DHT22;3541;53.230;10.518;2024-01-25T12:36:40;7.70;99.90
7002;DHT22;3541;53.230;10.518;2024-01-25T12:39:09;7.70;99.90
7002;DHT22;3541;53.230;10.518;2024-01-25T12:41:36;7.70;99.90
7002;DHT22;3541;53.230;10.518;2024-01-25T12:44:03;7.70;99.90
7002;DHT22;3541;53.230;10.518;2024-01-25T12:46:30;7.70;99.90
7002;DHT22;3541;53.230;10.518;2024-01-25T12:48:56;7.70;99.90
7002;DHT22;3541;53.230;10.518;2024-01-25T12:51:24;7.70;99.90
7002;DHT22;3541;53.230;10.518;2024-01-25T12:53:50;7.70;99.90
7002;DHT22;3541;53.230;10.518;2024-01-25T12:56:18;7.70;99.90
7002;DHT22;3541;53.230;10.518;2024-01-25T12:58:45;7.60;99.90
7002;DHT22;3541;53.230;10.518;2024-01-25T13:01:11;7.60;99.90
7002;DHT22;3541;53.230;10.518;2024-01-25T13:03:38;7.60;99.90
7002;DHT22;3541;53.230;10.518;2024-01-25T13:06:05;7.60;99.90
7002;DHT22;3541;53.230;10.518;2024-01-25T13:08:31;7.60;99.90
7002;DHT22;3541;53.230;10.518;2024-01-25T13:10:58;7.60;99.90
7002;DHT22;3541;53.230;10.518;2024-01-25T13:13:26;7.50;99.90
7002;DHT22;3541;53.230;10.518;2024-01-25T13:15:52;7.60;99.90
7002;DHT22;3541;53.230;10.518;2024-01-25T13:18:19;7.50;99.90
7002;DHT22;3541;53.230;10.518;2024-01-25T13:20:45;7.50;99.90
7002;DHT22;3541;53.230;10.518;2024-01-25T13:23:13;7.50;99.90
7002;DHT22;3541;53.230;10.518;2024-01-25T13:25:39;7.50;99.90
7002;DHT22;3541;53.230;10.518;2024-01-25T13:28:06;7.60;99.90
7002;DHT22;3541;53.230;10.518;2024-01-25T13:30:35;7.60;99.90
7002;DHT22;3541;53.230;10.518;2024-01-25T13:33:01;7.60;99.90
7002;DHT22;3541;53.230;10.518;2024-01-25T13:35:28;7.60;99.90
7002;DHT22;3541;53.230;10.518;2024-01-25T13:37:54;7.60;99.90
7002;DHT22;3541;53.230;10.518;2024-01-25T13:40:26;7.60;99.90
7002;DHT22;3541;53.230;10.518;2024-01-25T13:42:52;7.60;99.90
7002;DHT22;3541;53.230;10.518;2024-01-25T13:45:20;7.60;99.90
7002;DHT22;3541;53.230;10.518;2024-01-25T13:47:48;7.50;99.90
7002;DHT22;3541;53.230;10.518;2024-01-25T13:50:14;7.50;99.90
7002;DHT22;3541;53.230;10.518;2024-01-25T13:52:41;7.50;99.90
7002;DHT22;3541;53.230;10.518;2024-01-25T13:55:08;7.50;99.90
7002;DHT22;3541;53.230;10.518;2024-01-25T13:57:35;7.50;99.90
7002;DHT22;3541;53.230;10.518;2024-01-25T14:00:01;7.50;99.90
7002;DHT22;3541;53.230;10.518;2024-01-25T14:02:29;7.60;99.90
7002;DHT22;3541;53.230;10.518;2024-01-25T14:04:57;7.60;99.90
7002;DHT22;3541;53.230;10.518;2024-01-25T14:07:23;7.60;99.90
7002;DHT22;3541;53.230;10.518;2024-01-25T14:09:50;7.60;99.90
7002;DHT22;3541;53.230;10.518;2024-01-25T14:12:18;7.60;99.90
7002;DHT22;3541;53.230;10.518;2024-01-25T14:14:44;7.60;99.90
7002;DHT22;3541;53.230;10.518;2024-01-25T14:17:11;7.60;99.90
7002;DHT22;3541;53.230;10.518;2024-01-25T14:19:38;7.60;99.90
7002;DHT22;3541;53.230;10.518;2024-01-25T14:22:05;7.60;99.90
7002;DHT22;3541;53.230;10.518;2024-01-25T14:24:32;7.70;99.90
7002;DHT22;3541;53.230;10.518;2024-01-25T14:26:59;7.70;99.90
7002;DHT22;3541;53.230;10.518;2024-01-25T14:29:25;7.80;99.90
7002;DHT22;3541;53.230;10.518;2024-01-25T14:31:55;7.80;99.90
7002;DHT22;3541;53.230;10.518;2024-01-25T14:34:22;7.80;99.90
7002;DHT22;3541;53.230;10.518;2024-01-25T14:36:48;7.80;99.90
7002;DHT22;3541;53.230;10.518;2024-01-25T14:39:17;7.80;99.90
7002;DHT22;3541;53.230;10.518;2024-01-25T14:41:44;7.80;99.90
7002;DHT22;3541;53.230;10.518;2024-01-25T14:44:10;7.80;99.90
7002;DHT22;3541;53.230;10.518;2024-01-25T14:46:37;7.90;99.90
7002;DHT22;3541;53.230;10.518;2024-01-25T14:49:04;7.90;99.90
7002;DHT22;3541;53.230;10.518;2024-01-25T14:51:30;7.90;99.90
7002;DHT22;3541;53.230;10.518;2024-01-25T14:53:57;7.90;99.90
7002;DHT22;3541;53.230;10.518;2024-01-25T14:56:25;7.90;99.90
7002;DHT22;3541;53.230;10.518;2024-01-25T14:58:51;7.90;99.90
7002;DHT22;3541;53.230;10.518;2024-01-25T15:01:18;7.90;99.90
7002;DHT22;3541;53.230;10.518;2024-01-25T15:03:47;7.90;99.90
7002;DHT22;3541;53.230;10.518;2024-01-25T15:06:14;7.90;99.90
7002;DHT22;3541;53.230;10.518;2024-01-25T15:08:41;7.90;99.90
7002;DHT22;3541;53.230;10.518;2024-01-25T15:11:07;7.90;99.90
7002;DHT22;3541;53.230;10.518;2024-01-25T15:13:35;7.80;99.90
7002;DHT22;3541;53.230;10.518;2024-01-25T15:16:03;7.80;99.90
7002;DHT22;3541;53.230;10.518;2024-01-25T15:18:30;7.80;99.90
7002;DHT22;3541;53.230;10.518;2024-01-25T15:20:57;7.80;99.90
7002;DHT22;3541;53.230;10.518;2024-01-25T15:23:24;7.70;99.90
7002;DHT22;3541;53.230;10.518;2024-01-25T15:25:51;7.70;99.90
7002;DHT22;3541;53.230;10.518;2024-01-25T15:28:18;7.70;99.90
7002;DHT22;3541;53.230;10.518;2024-01-25T15:30:46;7.70;99.90
7002;DHT22;3541;53.230;10.518;2024-01-25T15:33:13;7.60;99.90
7002;DHT22;3541;53.230;10.518;2024-01-25T15:35:40;7.60;99.90
7002;DHT22;3541;53.230;10.518;2024-01-25T15:38:06;7.70;99.90
7002;DHT22;3541;53.230;10.518;2024-01-25T15:40:33;7.60;99.90
7002;DHT22;3541;53.230;10.518;2024-01-25T15:43:00;7.60;99.90
7002;DHT22;3541;53.230;10.518;2024-01-25T15:45:27;7.60;99.90
7002;DHT22;3541;53.230;10.518;2024-01-25T15:47:55;7.50;99.90
7002;DHT22;3541;53.230;10.518;2024-01-25T15:50:22;7.50;99.90
7002;DHT22;3541;53.230;10.518;2024-01-25T15:52:48;7.50;99.90
7002;DHT22;3541;53.230;10.518;2024-01-25T15:55:15;7.50;99.90
7002;DHT22;3541;53.230;10.518;2024-01-25T15:57:42;7.50;99.90
7002;DHT22;3541;53.230;10.518;2024-01-25T16:00:09;7.40;99.90